Plymouth, Mississippi
Current Conditions -  °F | °C
As of 9:53 PM on Wednesday 28 Jan 2015 (Local Time) from KTUP Reporting Station
Clear Clear  
Wind Chill: 41°   Ceiling: Unl
Heat Index: 45°   Visibility: 10mi
Dew Point: 32°   Wind: 7mph
Humidity: 60%   Direction: 210°SSW
Pressure: 30.16"   Gusts: NA
Location:  34.1762°N, 88.9612°W
Report Text: KTUP 290353Z 21006KT 10SM CLR 07/00 A3016 RMK AO2 SLP214 T00720000
Loading
Personal Weather Stations






























Interactive Weather Map New forecast layout! Learn more

10-Day Weather Forecast

Advertisements
Track Severe Weather on mobile